Time;durP1;ratioP1;P1;durP2;ratioP2;P2;SDS_P1;SDS_P2;PMS_P1;PMS_P2;Temp;Humidity;BMP_temperature;BMP_pressure;BME280_temperature;BME280_humidity;BME280_pressure;Samples;Min_cycle;Max_cycle;Signal;HPM_P1;HPM_P2
2023/03/12 00:01:23;;;;;;;1.70;1.67;;;3.60;99.90;;;;;;5055009;28;20642;-73
2023/03/12 00:03:49;;;;;;;1.30;1.10;;;3.60;99.90;;;;;;5052771;28;20204;-72
2023/03/12 00:06:17;;;;;;;0.30;0.30;;;3.60;99.90;;;;;;5055143;28;20653;-72
2023/03/12 00:08:42;;;;;;;2.60;2.45;;;3.70;99.90;;;;;;5055265;28;20335;-71
2023/03/12 00:11:14;;;;;;;4.37;1.73;;;3.70;99.90;;;;;;5054923;28;20611;-70
2023/03/12 00:13:40;;;;;;;3.42;1.85;;;3.80;99.90;;;;;;5054790;28;20269;-73
2023/03/12 00:16:11;;;;;;;1.93;1.30;;;3.90;99.90;;;;;;5054874;28;20194;-70
2023/03/12 00:18:37;;;;;;;0.77;0.77;;;3.90;99.90;;;;;;5055063;28;20178;-71
2023/03/12 00:21:03;;;;;;;1.63;0.93;;;3.90;99.90;;;;;;5054667;28;20201;-73
2023/03/12 00:23:30;;;;;;;1.20;1.15;;;3.90;99.80;;;;;;5054893;28;20276;-70
2023/03/12 00:26:04;;;;;;;0.70;0.70;;;3.80;99.70;;;;;;5054541;28;20179;-71
2023/03/12 00:28:30;;;;;;;2.25;2.15;;;3.90;99.90;;;;;;5054561;28;20200;-71
2023/03/12 00:30:57;;;;;;;1.27;1.27;;;3.90;99.90;;;;;;5054442;28;20174;-73
2023/03/12 00:33:24;;;;;;;1.40;1.30;;;3.90;99.90;;;;;;5054483;28;20201;-72
2023/03/12 00:35:49;;;;;;;0.75;0.75;;;3.90;99.90;;;;;;5054584;28;20232;-74
2023/03/12 00:38:15;;;;;;;1.37;1.37;;;4.00;99.90;;;;;;5054576;28;20170;-71
2023/03/12 00:40:41;;;;;;;0.50;0.50;;;4.00;99.90;;;;;;5054323;28;20220;-71
2023/03/12 00:43:06;;;;;;;1.60;1.50;;;4.00;99.90;;;;;;5054341;28;20315;-70
2023/03/12 00:45:32;;;;;;;12.67;1.23;;;4.00;99.90;;;;;;5054385;28;20253;-72
2023/03/12 00:47:58;;;;;;;1.30;0.97;;;4.10;99.90;;;;;;5054310;28;20412;-69
2023/03/12 00:50:23;;;;;;;0.83;0.83;;;4.10;99.90;;;;;;5054189;28;20170;-72
2023/03/12 00:52:49;;;;;;;2.27;2.13;;;4.00;99.90;;;;;;5054257;28;20677;-72
2023/03/12 00:55:15;;;;;;;0.97;0.97;;;4.00;99.90;;;;;;5036210;28;20178;-72
2023/03/12 00:57:40;;;;;;;3.03;2.13;;;4.10;99.90;;;;;;5054099;28;20213;-72
2023/03/12 01:00:10;;;;;;;0.90;0.90;;;4.10;99.90;;;;;;5054145;28;20405;-70
2023/03/12 01:02:37;;;;;;;0.85;0.80;;;4.10;99.90;;;;;;5053995;28;20197;-71
2023/03/12 01:05:03;;;;;;;0.82;0.82;;;4.10;99.90;;;;;;5053938;28;20562;-73
2023/03/12 01:07:29;;;;;;;1.67;1.58;;;4.00;99.80;;;;;;5054128;28;20189;-71
2023/03/12 01:09:55;;;;;;;1.07;1.07;;;4.10;99.90;;;;;;5053902;28;20202;-72
2023/03/12 01:12:20;;;;;;;0.97;0.97;;;4.00;99.70;;;;;;5053628;28;20281;-72
2023/03/12 01:14:46;;;;;;;0.70;0.70;;;4.00;99.80;;;;;;5053815;28;20170;-71
2023/03/12 01:17:11;;;;;;;1.43;1.33;;;3.90;99.90;;;;;;5053884;28;20209;-72
2023/03/12 01:19:37;;;;;;;1.50;1.40;;;3.90;99.90;;;;;;5054037;28;20166;-71
2023/03/12 01:22:03;;;;;;;0.50;0.50;;;4.00;99.90;;;;;;5053477;28;20167;-71
2023/03/12 01:24:28;;;;;;;1.27;1.27;;;4.00;99.90;;;;;;5053585;28;20174;-71
2023/03/12 01:26:55;;;;;;;3.33;3.20;;;4.10;99.90;;;;;;5053608;28;20212;-72
2023/03/12 01:29:21;;;;;;;1.58;1.48;;;4.10;99.90;;;;;;5053503;28;20194;-73
2023/03/12 01:31:47;;;;;;;1.90;1.07;;;4.20;99.90;;;;;;5053501;28;20181;-70
2023/03/12 01:34:12;;;;;;;3.83;2.30;;;4.10;99.90;;;;;;5053291;28;20291;-71
2023/03/12 01:36:38;;;;;;;2.30;1.60;;;4.20;99.90;;;;;;5053403;28;20401;-72
2023/03/12 01:39:04;;;;;;;1.23;1.23;;;4.30;99.90;;;;;;5053063;28;20171;-70
2023/03/12 01:41:31;;;;;;;0.70;0.70;;;4.30;99.90;;;;;;5053348;28;20546;-72
2023/03/12 01:43:58;;;;;;;1.15;1.05;;;4.30;99.90;;;;;;5053284;28;20567;-73
2023/03/12 01:46:47;;;;;;;0.70;0.70;;;4.40;99.90;;;;;;5053539;28;20645;-73
2023/03/12 01:49:27;;;;;;;0.40;0.40;;;4.30;99.90;;;;;;5053472;28;20202;-71
2023/03/12 01:52:04;;;;;;;0.75;0.75;;;4.40;99.90;;;;;;5053088;28;20634;-70
2023/03/12 01:54:39;;;;;;;1.35;1.30;;;4.30;99.90;;;;;;5053410;28;20154;-74
2023/03/12 01:57:10;;;;;;;1.30;1.30;;;4.30;99.90;;;;;;5053429;28;20647;-73
2023/03/12 01:59:41;;;;;;;0.50;0.50;;;4.40;99.90;;;;;;5053364;28;20182;-72
2023/03/12 02:02:07;;;;;;;0.68;0.68;;;4.30;99.90;;;;;;5052918;28;20182;-70
2023/03/12 02:04:35;;;;;;;1.75;1.75;;;4.30;99.90;;;;;;5053131;28;20658;-70
2023/03/12 02:07:07;;;;;;;1.45;1.38;;;4.30;99.90;;;;;;5053154;28;20167;-72
2023/03/12 02:09:36;;;;;;;3.15;0.77;;;4.30;99.90;;;;;;5052937;28;20235;-72
2023/03/12 02:12:03;;;;;;;0.40;0.40;;;4.30;99.90;;;;;;5052725;28;20170;-73
2023/03/12 02:14:29;;;;;;;1.75;1.63;;;4.30;99.90;;;;;;5052846;28;20236;-72
2023/03/12 02:16:55;;;;;;;0.60;0.60;;;4.30;99.90;;;;;;5053047;28;20246;-72
2023/03/12 02:19:40;;;;;;;1.20;0.77;;;4.30;99.90;;;;;;5052953;28;20601;-71
2023/03/12 02:22:06;;;;;;;2.38;1.50;;;4.40;99.90;;;;;;5052783;28;20400;-72
2023/03/12 02:24:42;;;;;;;0.70;0.70;;;4.30;99.90;;;;;;5052907;28;20186;-72
2023/03/12 02:27:10;;;;;;;1.83;0.98;;;4.30;99.90;;;;;;5052937;28;20157;-73
2023/03/12 02:29:39;;;;;;;5.82;2.65;;;4.20;99.90;;;;;;5052890;28;20230;-71
2023/03/12 02:32:08;;;;;;;1.02;0.98;;;4.40;99.90;;;;;;5052681;28;20217;-73
2023/03/12 02:34:34;;;;;;;0.85;0.85;;;4.40;99.90;;;;;;5052734;28;20189;-72
2023/03/12 02:37:00;;;;;;;1.55;1.42;;;4.40;99.90;;;;;;5053047;28;20171;-71
2023/03/12 02:39:27;;;;;;;0.87;0.87;;;4.50;99.90;;;;;;5052983;28;20197;-72
2023/03/12 02:41:57;;;;;;;0.98;0.85;;;4.40;99.90;;;;;;5052543;28;20174;-70
2023/03/12 02:44:26;;;;;;;0.50;0.50;;;4.40;99.90;;;;;;5052918;28;20663;-72
2023/03/12 02:46:57;;;;;;;0.40;0.40;;;4.40;99.90;;;;;;5052815;28;20179;-74
2023/03/12 02:49:28;;;;;;;5.75;0.95;;;4.60;99.90;;;;;;5053020;28;20217;-71
2023/03/12 02:51:56;;;;;;;4.22;3.40;;;4.70;99.90;;;;;;5056226;28;20174;-71
2023/03/12 02:54:22;;;;;;;0.60;0.60;;;4.60;99.90;;;;;;5056705;28;20533;-72
2023/03/12 02:56:49;;;;;;;0.93;0.55;;;4.60;99.90;;;;;;5056778;28;20166;-73
2023/03/12 02:59:15;;;;;;;2.20;2.10;;;4.60;99.90;;;;;;5056421;28;20186;-71
2023/03/12 03:01:41;;;;;;;0.60;0.60;;;4.60;99.90;;;;;;5056123;28;20509;-72
2023/03/12 03:04:10;;;;;;;0.68;0.68;;;4.60;99.90;;;;;;5056235;28;20770;-71
2023/03/12 03:06:37;;;;;;;0.40;0.40;;;4.60;99.90;;;;;;5056368;28;20174;-72
2023/03/12 03:09:04;;;;;;;0.40;0.40;;;4.70;99.90;;;;;;5056379;28;20559;-73
2023/03/12 03:11:29;;;;;;;1.35;1.25;;;4.70;99.90;;;;;;5056013;28;20179;-71
2023/03/12 03:13:55;;;;;;;0.80;0.80;;;4.70;99.90;;;;;;5055945;28;20209;-71
2023/03/12 03:16:22;;;;;;;0.50;0.50;;;4.70;99.90;;;;;;5056264;28;20533;-71
2023/03/12 03:18:48;;;;;;;0.50;0.40;;;4.70;99.90;;;;;;5056147;28;20488;-72
2023/03/12 03:21:15;;;;;;;1.13;0.93;;;4.70;99.90;;;;;;5055697;28;20201;-72
2023/03/12 03:23:51;;;;;;;0.50;0.50;;;4.80;99.90;;;;;;5056084;28;20182;-71
2023/03/12 03:26:20;;;;;;;1.58;1.30;;;4.80;99.90;;;;;;5055887;28;20181;-73
2023/03/12 03:28:46;;;;;;;2.63;2.42;;;4.60;99.90;;;;;;5055914;28;20199;-71
2023/03/12 03:31:12;;;;;;;0.50;0.50;;;4.40;99.90;;;;;;5055706;28;20585;-73
2023/03/12 03:33:38;;;;;;;0.88;0.88;;;4.40;99.90;;;;;;5055506;28;20202;-72
2023/03/12 03:36:06;;;;;;;0.60;0.60;;;4.40;99.90;;;;;;5037839;28;20540;-71
2023/03/12 03:38:33;;;;;;;0.60;0.60;;;4.50;99.90;;;;;;5055823;28;20265;-70
2023/03/12 03:40:59;;;;;;;1.65;1.27;;;4.60;99.90;;;;;;5055564;28;20174;-73
2023/03/12 03:43:25;;;;;;;0.63;0.63;;;4.60;99.90;;;;;;5055448;28;20186;-69
2023/03/12 03:45:58;;;;;;;0.40;0.40;;;4.60;99.90;;;;;;5055586;28;20921;-72
2023/03/12 03:48:24;;;;;;;0.95;0.95;;;4.60;99.90;;;;;;5055307;28;20228;-73
2023/03/12 03:50:50;;;;;;;0.30;0.30;;;4.70;99.90;;;;;;5055681;28;20682;-72
2023/03/12 03:53:18;;;;;;;0.63;0.60;;;4.70;99.90;;;;;;5055482;28;20182;-71
2023/03/12 03:55:44;;;;;;;0.30;0.30;;;4.70;99.90;;;;;;5055429;28;20166;-74
2023/03/12 03:58:09;;;;;;;1.20;0.55;;;4.70;99.90;;;;;;5055297;28;20197;-70
2023/03/12 04:00:35;;;;;;;0.80;0.50;;;4.80;99.90;;;;;;5054710;28;20163;-74
2023/03/12 04:03:01;;;;;;;0.60;0.50;;;4.90;99.90;;;;;;5055097;28;20182;-74
2023/03/12 04:05:26;;;;;;;0.50;0.50;;;4.90;99.90;;;;;;5055199;28;20170;-73
2023/03/12 04:07:53;;;;;;;0.40;0.40;;;5.00;99.90;;;;;;5055190;28;20175;-72
2023/03/12 04:10:23;;;;;;;0.40;0.40;;;4.90;99.90;;;;;;5054900;28;20258;-72
2023/03/12 04:12:49;;;;;;;2.35;1.55;;;5.00;99.90;;;;;;5037146;28;20343;-71
2023/03/12 04:15:16;;;;;;;0.50;0.50;;;5.00;99.90;;;;;;5054924;28;20215;-70
2023/03/12 04:17:42;;;;;;;0.50;0.50;;;4.90;99.90;;;;;;5036994;28;20714;-71
2023/03/12 04:20:09;;;;;;;2.50;0.90;;;5.00;99.90;;;;;;5054824;28;20257;-71
2023/03/12 04:22:35;;;;;;;0.73;0.73;;;5.00;99.90;;;;;;5054774;28;20198;-72
2023/03/12 04:25:01;;;;;;;0.30;0.30;;;5.10;99.90;;;;;;5054774;28;20170;-71
2023/03/12 04:27:27;;;;;;;0.40;0.40;;;5.10;99.90;;;;;;5054948;28;20174;-72
2023/03/12 04:29:52;;;;;;;0.70;0.70;;;5.10;99.90;;;;;;5054755;28;20197;-70
2023/03/12 04:32:18;;;;;;;0.47;0.47;;;5.20;99.90;;;;;;5054481;28;20524;-72
2023/03/12 04:34:44;;;;;;;0.97;0.97;;;5.20;99.90;;;;;;5054571;28;20432;-72
2023/03/12 04:37:14;;;;;;;0.88;0.70;;;5.20;99.90;;;;;;5054732;28;20844;-71
2023/03/12 04:39:41;;;;;;;0.38;0.38;;;5.20;99.90;;;;;;5054505;28;20175;-73
2023/03/12 04:42:07;;;;;;;0.40;0.40;;;5.30;99.90;;;;;;5054306;28;20206;-71
2023/03/12 04:44:33;;;;;;;0.40;0.40;;;5.30;99.90;;;;;;5054370;28;20178;-71
2023/03/12 04:46:59;;;;;;;0.80;0.80;;;5.30;99.90;;;;;;5054273;28;20667;-71
2023/03/12 04:49:24;;;;;;;0.73;0.73;;;5.30;99.90;;;;;;5054320;28;20198;-70
2023/03/12 04:51:50;;;;;;;0.40;0.40;;;5.20;99.90;;;;;;5054216;28;20563;-69
2023/03/12 04:54:15;;;;;;;0.40;0.40;;;5.20;99.90;;;;;;5054225;28;20194;-73
2023/03/12 04:56:41;;;;;;;0.43;0.43;;;5.20;99.90;;;;;;5052855;28;20198;-72
2023/03/12 04:59:07;;;;;;;0.47;0.47;;;5.20;99.90;;;;;;5053883;28;20178;-71
2023/03/12 05:01:35;;;;;;;0.40;0.40;;;5.20;99.90;;;;;;5054034;28;20405;-73
2023/03/12 05:04:01;;;;;;;0.50;0.50;;;5.20;99.90;;;;;;5053940;28;20190;-72
2023/03/12 05:06:27;;;;;;;0.50;0.50;;;5.20;99.90;;;;;;5054165;28;20178;-72
2023/03/12 05:08:53;;;;;;;1.50;0.95;;;5.30;99.90;;;;;;5053992;28;20196;-73
2023/03/12 05:11:20;;;;;;;0.50;0.50;;;5.40;99.90;;;;;;5053780;28;20175;-72
2023/03/12 05:13:45;;;;;;;0.40;0.40;;;5.50;99.90;;;;;;5053163;28;20195;-70
2023/03/12 05:16:12;;;;;;;0.40;0.40;;;5.40;99.90;;;;;;5053816;28;20393;-69
2023/03/12 05:18:37;;;;;;;0.43;0.40;;;5.30;99.90;;;;;;5053819;28;20174;-71
2023/03/12 05:21:06;;;;;;;0.40;0.40;;;5.20;99.90;;;;;;5053546;28;20552;-73
2023/03/12 05:23:33;;;;;;;0.40;0.40;;;5.20;99.90;;;;;;5053541;28;20564;-70
2023/03/12 05:25:58;;;;;;;0.40;0.40;;;5.20;99.90;;;;;;5035750;28;20182;-72
2023/03/12 05:28:27;;;;;;;0.90;0.87;;;5.30;99.90;;;;;;5053439;28;20174;-72
2023/03/12 05:31:09;;;;;;;1.58;0.70;;;5.30;99.90;;;;;;5053391;28;20170;-71
2023/03/12 05:33:35;;;;;;;1.13;0.68;;;5.20;99.90;;;;;;5053588;28;20678;-70
2023/03/12 05:36:00;;;;;;;0.60;0.60;;;5.30;99.90;;;;;;5053640;28;20177;-71
2023/03/12 05:38:26;;;;;;;0.40;0.40;;;5.30;99.90;;;;;;5053646;28;20409;-69
2023/03/12 05:40:58;;;;;;;0.40;0.40;;;5.30;99.90;;;;;;5053208;28;20170;-72
2023/03/12 05:43:24;;;;;;;0.75;0.75;;;5.30;99.90;;;;;;5035435;28;20216;-70
2023/03/12 05:45:50;;;;;;;0.90;0.75;;;5.50;99.90;;;;;;5053410;28;20170;-72
2023/03/12 05:48:16;;;;;;;0.40;0.40;;;5.40;99.90;;;;;;5053419;28;20181;-70
2023/03/12 05:50:42;;;;;;;0.40;0.40;;;5.40;99.90;;;;;;5053188;28;20172;-73
2023/03/12 05:53:08;;;;;;;1.10;1.10;;;5.60;99.90;;;;;;5053369;28;20674;-70
2023/03/12 05:55:35;;;;;;;0.60;0.60;;;5.70;99.90;;;;;;5053211;28;20635;-73
2023/03/12 05:58:01;;;;;;;0.50;0.50;;;5.70;99.90;;;;;;5053218;28;20397;-71
2023/03/12 06:00:27;;;;;;;0.40;0.40;;;5.80;99.90;;;;;;5053014;28;20580;-73
2023/03/12 06:02:53;;;;;;;0.50;0.50;;;5.80;99.90;;;;;;5053376;28;20274;-71
2023/03/12 06:05:18;;;;;;;0.40;0.40;;;5.70;99.90;;;;;;5053144;28;20502;-71
2023/03/12 06:07:44;;;;;;;0.40;0.40;;;5.80;99.90;;;;;;5053299;28;20193;-70
2023/03/12 06:10:10;;;;;;;0.40;0.40;;;5.80;99.90;;;;;;5052826;28;20195;-72
2023/03/12 06:12:36;;;;;;;0.45;0.45;;;5.80;99.90;;;;;;5035116;28;20240;-72
2023/03/12 06:15:02;;;;;;;0.40;0.40;;;5.80;99.90;;;;;;5053174;28;20182;-70
2023/03/12 06:17:31;;;;;;;0.40;0.40;;;5.70;99.90;;;;;;5053023;28;20219;-74
2023/03/12 06:19:57;;;;;;;0.40;0.40;;;5.70;99.90;;;;;;5053161;28;20278;-72
2023/03/12 06:22:23;;;;;;;0.57;0.57;;;5.80;99.90;;;;;;5052714;28;20281;-73
2023/03/12 06:24:49;;;;;;;0.40;0.40;;;5.90;99.90;;;;;;5055776;28;20174;-71
2023/03/12 06:27:15;;;;;;;0.77;0.77;;;5.90;99.90;;;;;;5057046;28;20170;-73
2023/03/12 06:29:41;;;;;;;1.25;1.25;;;5.90;99.90;;;;;;5056878;28;20209;-72
2023/03/12 06:32:07;;;;;;;0.40;0.40;;;5.90;99.90;;;;;;5056785;28;20168;-74
2023/03/12 06:34:33;;;;;;;0.40;0.40;;;6.00;99.90;;;;;;5056783;28;20187;-72
2023/03/12 06:36:59;;;;;;;0.80;0.80;;;6.10;99.90;;;;;;5056993;28;20174;-72
2023/03/12 06:39:24;;;;;;;0.40;0.40;;;6.10;99.90;;;;;;5056750;28;20528;-73
2023/03/12 06:41:50;;;;;;;0.40;0.40;;;6.20;99.90;;;;;;5056819;28;20550;-71
2023/03/12 06:44:16;;;;;;;0.53;0.50;;;6.20;99.90;;;;;;5056592;28;20206;-74
2023/03/12 06:46:43;;;;;;;0.60;0.60;;;6.20;99.90;;;;;;5056769;28;20242;-74
2023/03/12 06:49:09;;;;;;;0.75;0.68;;;6.30;99.90;;;;;;5056684;28;20190;-76
2023/03/12 06:51:35;;;;;;;0.45;0.45;;;6.40;99.90;;;;;;5056372;28;20542;-73
2023/03/12 06:54:01;;;;;;;0.57;0.57;;;6.40;99.90;;;;;;5056430;28;20184;-74
2023/03/12 06:56:27;;;;;;;0.50;0.50;;;6.30;99.90;;;;;;5038549;28;20179;-76
2023/03/12 06:58:53;;;;;;;0.35;0.35;;;6.30;99.90;;;;;;5056548;28;20208;-75
2023/03/12 07:01:18;;;;;;;0.60;0.60;;;6.50;99.90;;;;;;5056211;28;20197;-77
2023/03/12 07:03:44;;;;;;;0.40;0.40;;;6.60;99.90;;;;;;5056419;28;20194;-74
2023/03/12 07:06:15;;;;;;;0.53;0.53;;;6.70;99.90;;;;;;5056254;28;20629;-76
2023/03/12 07:08:41;;;;;;;0.45;0.45;;;6.80;99.90;;;;;;5056334;28;20527;-75
2023/03/12 07:11:07;;;;;;;0.30;0.30;;;6.90;99.90;;;;;;5056136;28;20196;-75
2023/03/12 07:13:33;;;;;;;0.60;0.60;;;6.80;99.90;;;;;;5056072;28;20196;-73
2023/03/12 07:15:59;;;;;;;3.23;2.93;;;6.80;99.90;;;;;;5056354;28;20550;-77
2023/03/12 07:18:25;;;;;;;0.40;0.40;;;6.90;99.90;;;;;;5056131;28;20414;-74
2023/03/12 07:20:51;;;;;;;0.97;0.77;;;6.90;99.90;;;;;;5055779;28;20169;-75
2023/03/12 07:23:17;;;;;;;0.30;0.30;;;7.00;99.90;;;;;;5055862;28;20664;-72
2023/03/12 07:25:43;;;;;;;0.50;0.50;;;7.00;99.90;;;;;;5055959;28;20263;-75
2023/03/12 07:28:10;;;;;;;0.40;0.40;;;7.10;99.90;;;;;;5056105;28;20427;-77
2023/03/12 07:30:36;;;;;;;0.40;0.40;;;7.20;99.90;;;;;;5055691;28;20205;-72
2023/03/12 07:33:03;;;;;;;0.30;0.30;;;7.30;99.90;;;;;;5054574;28;20208;-73
2023/03/12 07:35:30;;;;;;;0.50;0.50;;;7.30;99.90;;;;;;5054048;28;20190;-73
2023/03/12 07:37:55;;;;;;;0.35;0.35;;;7.30;99.90;;;;;;5053626;28;20170;-73
2023/03/12 07:40:21;;;;;;;0.40;0.40;;;7.30;99.90;;;;;;5055613;28;20185;-73
2023/03/12 07:42:48;;;;;;;0.77;0.77;;;7.30;99.90;;;;;;5055951;28;20189;-71
2023/03/12 07:45:14;;;;;;;0.30;0.30;;;7.30;99.90;;;;;;5054403;28;20209;-72
2023/03/12 07:47:40;;;;;;;0.70;0.70;;;7.40;99.90;;;;;;5055673;28;20227;-73
2023/03/12 07:50:06;;;;;;;0.40;0.40;;;7.40;99.90;;;;;;5055870;28;20198;-75
2023/03/12 07:52:32;;;;;;;0.40;0.40;;;7.50;99.90;;;;;;5055370;28;20198;-72
2023/03/12 07:54:57;;;;;;;0.40;0.40;;;7.50;99.90;;;;;;5055775;28;20496;-73
2023/03/12 07:57:23;;;;;;;0.70;0.53;;;7.60;99.90;;;;;;5055776;28;20428;-71
2023/03/12 07:59:49;;;;;;;0.70;0.70;;;7.60;99.90;;;;;;5055850;28;20170;-71
2023/03/12 08:02:15;;;;;;;1.50;1.40;;;7.70;99.90;;;;;;5055688;28;20208;-71
2023/03/12 08:04:40;;;;;;;0.90;0.90;;;7.70;99.90;;;;;;5055304;28;20484;-71
2023/03/12 08:07:06;;;;;;;0.80;0.70;;;7.80;99.90;;;;;;5055275;28;20627;-72
2023/03/12 08:09:32;;;;;;;0.50;0.50;;;7.80;99.90;;;;;;5055482;28;20208;-72
2023/03/12 08:11:58;;;;;;;0.40;0.40;;;7.90;99.90;;;;;;5037413;28;20177;-73
2023/03/12 08:14:24;;;;;;;1.20;1.15;;;8.00;99.90;;;;;;5055588;28;20168;-72
2023/03/12 08:16:49;;;;;;;0.40;0.40;;;8.00;99.90;;;;;;5054991;28;20189;-73
2023/03/12 08:19:17;;;;;;;0.40;0.40;;;8.00;99.90;;;;;;5054781;28;20203;-72
2023/03/12 08:21:44;;;;;;;0.50;0.50;;;8.10;99.90;;;;;;5036897;28;20269;-71
2023/03/12 08:24:09;;;;;;;0.50;0.50;;;8.20;99.90;;;;;;5053591;28;20251;-71
2023/03/12 08:26:35;;;;;;;5.60;0.70;;;8.20;99.90;;;;;;5054863;28;20169;-71
2023/03/12 08:29:01;;;;;;;0.40;0.40;;;8.20;99.90;;;;;;5054814;28;20282;-70
2023/03/12 08:31:27;;;;;;;0.40;0.40;;;8.20;99.90;;;;;;5053434;28;20567;-72
2023/03/12 08:33:53;;;;;;;0.52;0.52;;;8.20;99.90;;;;;;5054599;28;20228;-71
2023/03/12 08:36:20;;;;;;;0.50;0.50;;;8.10;99.90;;;;;;5054641;28;20180;-69
2023/03/12 08:38:46;;;;;;;0.50;0.50;;;8.20;99.90;;;;;;5054498;28;20201;-69
2023/03/12 08:41:13;;;;;;;0.30;0.30;;;8.30;99.90;;;;;;5054443;28;20596;-69
2023/03/12 08:43:38;;;;;;;0.40;0.40;;;8.30;99.90;;;;;;5035631;28;20220;-69
2023/03/12 08:46:04;;;;;;;0.80;0.80;;;8.30;99.90;;;;;;5054809;28;20174;-71
2023/03/12 08:48:31;;;;;;;0.50;0.50;;;8.40;99.90;;;;;;5054528;28;20261;-71
2023/03/12 08:50:58;;;;;;;0.40;0.40;;;8.30;99.90;;;;;;5054539;28;20653;-71
2023/03/12 08:53:26;;;;;;;0.30;0.30;;;8.40;99.90;;;;;;5054489;28;20296;-71
2023/03/12 08:55:53;;;;;;;0.40;0.40;;;8.50;99.90;;;;;;5054722;28;20181;-71
2023/03/12 08:58:18;;;;;;;1.45;1.38;;;8.60;99.90;;;;;;5054100;28;20166;-71
2023/03/12 09:00:44;;;;;;;0.40;0.40;;;8.60;99.90;;;;;;5054517;28;20261;-71
2023/03/12 09:03:13;;;;;;;0.30;0.30;;;8.60;99.90;;;;;;5054156;28;20424;-71
2023/03/12 09:05:42;;;;;;;0.40;0.40;;;8.60;99.90;;;;;;5054282;28;20519;-71
2023/03/12 09:08:09;;;;;;;0.40;0.40;;;8.70;99.90;;;;;;5054349;28;20220;-71
2023/03/12 09:10:35;;;;;;;0.30;0.30;;;8.90;99.90;;;;;;5054072;28;20285;-71
2023/03/12 09:13:01;;;;;;;0.40;0.40;;;8.70;99.90;;;;;;5036170;28;20190;-71
2023/03/12 09:15:28;;;;;;;0.40;0.40;;;8.80;99.90;;;;;;5053850;28;20177;-69
2023/03/12 09:17:54;;;;;;;0.75;0.75;;;8.90;99.90;;;;;;5053980;28;20519;-69
2023/03/12 09:20:21;;;;;;;0.30;0.30;;;9.00;99.90;;;;;;5053939;28;20174;-70
2023/03/12 09:22:47;;;;;;;1.65;1.27;;;9.00;99.90;;;;;;5053601;28;20607;-70
2023/03/12 09:25:18;;;;;;;1.30;1.20;;;9.00;99.90;;;;;;5054224;28;20253;-71
2023/03/12 09:27:46;;;;;;;0.40;0.40;;;9.10;99.90;;;;;;5054274;28;20170;-71
2023/03/12 09:30:18;;;;;;;2.35;1.35;;;9.00;99.90;;;;;;5053476;28;20197;-71
2023/03/12 09:32:44;;;;;;;0.40;0.40;;;8.90;99.90;;;;;;5053704;28;20193;-71
2023/03/12 09:35:11;;;;;;;0.50;0.50;;;8.80;99.90;;;;;;5053927;28;20178;-71
2023/03/12 09:37:37;;;;;;;0.75;0.65;;;8.90;99.90;;;;;;5053800;28;20174;-71
2023/03/12 09:40:06;;;;;;;0.60;0.60;;;8.90;99.90;;;;;;5054117;28;20178;-71
2023/03/12 09:42:45;;;;;;;0.30;0.30;;;9.00;99.90;;;;;;5053519;28;20634;-71
2023/03/12 09:45:35;;;;;;;0.30;0.30;;;9.10;99.90;;;;;;5053852;28;20174;-71
2023/03/12 09:48:03;;;;;;;0.45;0.45;;;9.20;99.90;;;;;;5053939;28;20551;-71
2023/03/12 09:50:39;;;;;;;0.73;0.65;;;9.40;99.90;;;;;;5053553;28;20202;-71
2023/03/12 09:53:29;;;;;;;0.35;0.35;;;9.60;99.90;;;;;;5053419;28;20224;-70
2023/03/12 09:55:57;;;;;;;0.40;0.40;;;10.00;99.90;;;;;;5053633;28;20188;-69
2023/03/12 09:58:31;;;;;;;0.30;0.30;;;10.30;99.90;;;;;;5053118;28;20639;-69
2023/03/12 10:01:19;;;;;;;0.30;0.30;;;10.40;99.90;;;;;;5052970;28;20227;-69
2023/03/12 10:04:07;;;;;;;0.30;0.30;;;10.40;99.90;;;;;;5053454;28;20194;-68
2023/03/12 10:06:44;;;;;;;0.30;0.30;;;10.50;99.90;;;;;;5053577;28;20248;-69
2023/03/12 10:09:38;;;;;;;0.40;0.40;;;10.40;99.90;;;;;;5053727;28;20281;-69
2023/03/12 10:12:13;;;;;;;0.40;0.40;;;10.40;99.90;;;;;;5050558;28;20182;-69
2023/03/12 10:15:14;;;;;;;0.80;0.80;;;10.50;99.90;;;;;;5052336;28;20246;-71
2023/03/12 10:17:47;;;;;;;0.50;0.50;;;10.40;99.90;;;;;;5053699;28;20224;-70
2023/03/12 10:20:18;;;;;;;0.30;0.30;;;10.20;99.90;;;;;;5052077;28;20163;-70
2023/03/12 10:22:44;;;;;;;0.30;0.30;;;10.10;99.90;;;;;;5053118;28;20269;-70
2023/03/12 10:25:29;;;;;;;0.63;0.63;;;10.10;99.90;;;;;;5053424;28;20194;-71
2023/03/12 10:28:01;;;;;;;0.50;0.50;;;10.20;99.90;;;;;;5053382;28;20170;-71
2023/03/12 10:30:29;;;;;;;0.30;0.30;;;10.40;99.90;;;;;;5053188;28;20202;-71
2023/03/12 10:32:58;;;;;;;3.13;0.90;;;10.20;99.90;;;;;;5052753;28;20194;-71
2023/03/12 10:35:29;;;;;;;0.30;0.30;;;10.20;99.90;;;;;;5034906;28;20265;-71
2023/03/12 10:38:00;;;;;;;0.30;0.30;;;10.20;99.90;;;;;;5053465;28;20576;-69
2023/03/12 10:40:28;;;;;;;1.00;1.00;;;10.00;99.90;;;;;;5052734;28;20221;-69
2023/03/12 10:42:54;;;;;;;0.50;0.50;;;10.00;99.90;;;;;;5051547;28;20197;-69
2023/03/12 10:45:40;;;;;;;0.60;0.60;;;10.20;99.90;;;;;;5052686;28;20643;-69
2023/03/12 10:48:10;;;;;;;0.40;0.40;;;10.40;99.90;;;;;;5052826;28;20170;-69
2023/03/12 10:50:38;;;;;;;0.38;0.38;;;10.60;99.90;;;;;;5052563;28;20285;-69
2023/03/12 10:53:29;;;;;;;0.30;0.30;;;10.80;99.90;;;;;;5052809;28;20270;-69
2023/03/12 10:56:06;;;;;;;0.30;0.30;;;10.80;99.60;;;;;;5052663;28;20175;-69
2023/03/12 10:58:33;;;;;;;0.30;0.30;;;10.60;99.30;;;;;;5052771;28;20189;-69
2023/03/12 11:01:01;;;;;;;0.50;0.50;;;10.10;99.90;;;;;;5052494;28;20167;-68
2023/03/12 11:03:28;;;;;;;0.50;0.50;;;10.00;99.90;;;;;;5051040;28;20265;-71
2023/03/12 11:05:57;;;;;;;0.30;0.30;;;10.00;99.90;;;;;;5051244;28;20587;-71
2023/03/12 11:08:25;;;;;;;0.40;0.40;;;10.10;99.90;;;;;;5052403;28;20198;-71
2023/03/12 11:10:52;;;;;;;30.48;12.85;;;10.30;99.90;;;;;;5035521;28;20277;-71
2023/03/12 11:13:34;;;;;;;4.13;3.05;;;10.30;99.90;;;;;;5056047;28;20190;-70
2023/03/12 11:16:20;;;;;;;3.33;0.88;;;10.10;99.90;;;;;;5056118;28;20201;-71
2023/03/12 11:18:58;;;;;;;0.30;0.30;;;10.00;99.90;;;;;;5055567;28;20178;-71
2023/03/12 11:21:24;;;;;;;0.55;0.55;;;10.20;99.90;;;;;;5055948;28;20535;-71
2023/03/12 11:23:56;;;;;;;0.50;0.50;;;10.50;99.90;;;;;;5055867;28;20277;-71
2023/03/12 11:26:52;;;;;;;0.83;0.60;;;10.90;99.90;;;;;;5055828;28;20762;-71
2023/03/12 11:29:38;;;;;;;0.40;0.40;;;11.00;99.60;;;;;;5055687;28;20449;-71
2023/03/12 11:32:16;;;;;;;2.80;1.47;;;11.10;98.90;;;;;;5055661;28;20397;-71
2023/03/12 11:34:46;;;;;;;1.87;1.23;;;11.40;99.20;;;;;;5055649;28;20578;-71
2023/03/12 11:37:20;;;;;;;0.40;0.40;;;11.90;99.00;;;;;;5037870;28;20412;-71
2023/03/12 11:40:09;;;;;;;0.60;0.60;;;12.20;98.70;;;;;;5055727;28;20430;-71
2023/03/12 11:42:47;;;;;;;0.70;0.70;;;12.40;96.90;;;;;;5055474;28;20424;-71
2023/03/12 11:45:55;;;;;;;0.30;0.30;;;12.20;96.70;;;;;;5055570;28;20861;-71
2023/03/12 11:48:32;;;;;;;1.83;1.73;;;11.70;96.50;;;;;;5055608;28;20874;-71
2023/03/12 11:51:09;;;;;;;0.70;0.50;;;11.30;97.20;;;;;;5055413;28;20452;-71
2023/03/12 11:53:46;;;;;;;0.77;0.77;;;10.70;98.10;;;;;;5055505;28;20420;-71
2023/03/12 11:56:15;;;;;;;0.40;0.40;;;10.50;99.30;;;;;;5037573;28;20652;-70
2023/03/12 11:58:50;;;;;;;0.50;0.50;;;10.50;99.10;;;;;;5055423;28;20162;-71
2023/03/12 12:01:21;;;;;;;0.50;0.50;;;10.40;98.70;;;;;;5055335;28;20547;-70
2023/03/12 12:04:14;;;;;;;0.40;0.40;;;10.30;99.10;;;;;;5055105;28;20214;-71
2023/03/12 12:06:51;;;;;;;0.50;0.50;;;10.20;99.50;;;;;;5055500;28;20193;-71
2023/03/12 12:09:27;;;;;;;2.00;1.88;;;10.10;99.90;;;;;;5037246;28;20194;-71
2023/03/12 12:12:16;;;;;;;0.60;0.60;;;10.10;99.90;;;;;;5055160;28;20165;-71
2023/03/12 12:15:16;;;;;;;0.40;0.40;;;10.10;99.90;;;;;;5055028;28;20151;-71
2023/03/12 12:18:10;;;;;;;0.30;0.30;;;10.00;99.90;;;;;;5055091;28;20162;-71
2023/03/12 12:21:04;;;;;;;1.20;1.20;;;10.10;99.90;;;;;;5054808;28;20167;-71
2023/03/12 12:23:33;;;;;;;1.27;1.27;;;10.30;99.90;;;;;;5054775;28;20182;-71
2023/03/12 12:26:08;;;;;;;0.73;0.55;;;10.40;99.90;;;;;;5054914;28;20548;-71
2023/03/12 12:28:53;;;;;;;0.40;0.40;;;10.70;99.90;;;;;;5054944;28;20174;-71
2023/03/12 12:31:27;;;;;;;0.30;0.30;;;11.00;98.90;;;;;;5036659;28;20171;-71
2023/03/12 12:34:16;;;;;;;0.40;0.40;;;11.10;98.90;;;;;;5054408;28;20531;-71
2023/03/12 12:36:50;;;;;;;1.90;0.90;;;11.00;99.00;;;;;;5054662;28;20397;-71
2023/03/12 12:39:31;;;;;;;0.70;0.70;;;10.90;98.90;;;;;;5054720;28;20471;-71
2023/03/12 12:42:01;;;;;;;5.47;1.37;;;11.00;98.80;;;;;;5054331;28;20436;-71
2023/03/12 12:44:34;;;;;;;5.60;2.57;;;11.10;98.10;;;;;;5054641;28;20381;-71
2023/03/12 12:47:05;;;;;;;0.73;0.73;;;11.20;98.00;;;;;;5054575;28;20413;-71
2023/03/12 12:49:42;;;;;;;0.30;0.30;;;11.20;98.10;;;;;;5036570;28;21030;-71
2023/03/12 12:52:12;;;;;;;1.58;0.90;;;11.00;98.30;;;;;;5054096;28;20412;-71
2023/03/12 12:54:55;;;;;;;0.60;0.60;;;10.80;98.70;;;;;;5054223;28;20162;-71
2023/03/12 12:57:37;;;;;;;0.73;0.73;;;10.60;99.00;;;;;;5054464;28;20220;-71
2023/03/12 13:00:21;;;;;;;0.40;0.40;;;10.60;99.80;;;;;;5054419;28;20182;-71
2023/03/12 13:02:47;;;;;;;0.30;0.30;;;10.70;99.60;;;;;;5036120;28;20208;-70
2023/03/12 13:05:24;;;;;;;0.88;0.88;;;10.60;98.80;;;;;;5054122;28;20228;-71
2023/03/12 13:07:50;;;;;;;0.70;0.70;;;10.80;99.40;;;;;;5054280;28;20256;-71